sensor_id;sensor_type;location;lat;lon;timestamp;P1;durP1;ratioP1;P2;durP2;ratioP2
16662;SDS011;8445;51.270;9.434;2024-01-07T00:02:16;13.77;;;11.50;;
16662;SDS011;8445;51.270;9.434;2024-01-07T00:04:44;12.53;;;10.50;;
16662;SDS011;8445;51.270;9.434;2024-01-07T00:07:10;11.87;;;10.53;;
16662;SDS011;8445;51.270;9.434;2024-01-07T00:09:35;16.03;;;12.67;;
16662;SDS011;8445;51.270;9.434;2024-01-07T00:12:01;16.63;;;12.23;;
16662;SDS011;8445;51.270;9.434;2024-01-07T00:14:27;13.03;;;10.77;;
16662;SDS011;8445;51.270;9.434;2024-01-07T00:16:53;14.80;;;12.93;;
16662;SDS011;8445;51.270;9.434;2024-01-07T00:19:19;18.03;;;14.33;;
16662;SDS011;8445;51.270;9.434;2024-01-07T00:21:46;16.30;;;11.73;;
16662;SDS011;8445;51.270;9.434;2024-01-07T00:24:12;25.23;;;15.93;;
16662;SDS011;8445;51.270;9.434;2024-01-07T00:26:38;18.77;;;15.83;;
16662;SDS011;8445;51.270;9.434;2024-01-07T00:29:04;14.10;;;11.63;;
16662;SDS011;8445;51.270;9.434;2024-01-07T00:31:30;12.27;;;9.30;;
16662;SDS011;8445;51.270;9.434;2024-01-07T00:33:59;25.90;;;17.40;;
16662;SDS011;8445;51.270;9.434;2024-01-07T00:36:25;24.30;;;17.50;;
16662;SDS011;8445;51.270;9.434;2024-01-07T00:38:53;13.00;;;9.77;;
16662;SDS011;8445;51.270;9.434;2024-01-07T00:41:19;20.60;;;15.00;;
16662;SDS011;8445;51.270;9.434;2024-01-07T00:43:45;24.30;;;16.47;;
16662;SDS011;8445;51.270;9.434;2024-01-07T00:46:11;25.23;;;17.50;;
16662;SDS011;8445;51.270;9.434;2024-01-07T00:48:37;20.60;;;15.23;;
16662;SDS011;8445;51.270;9.434;2024-01-07T00:51:03;21.43;;;16.90;;
16662;SDS011;8445;51.270;9.434;2024-01-07T00:53:29;20.20;;;16.43;;
16662;SDS011;8445;51.270;9.434;2024-01-07T00:55:57;18.67;;;15.53;;
16662;SDS011;8445;51.270;9.434;2024-01-07T00:58:23;18.87;;;15.40;;
16662;SDS011;8445;51.270;9.434;2024-01-07T01:00:49;22.37;;;17.63;;
16662;SDS011;8445;51.270;9.434;2024-01-07T01:03:16;18.57;;;14.30;;
16662;SDS011;8445;51.270;9.434;2024-01-07T01:05:42;17.10;;;15.30;;
16662;SDS011;8445;51.270;9.434;2024-01-07T01:08:11;16.93;;;13.20;;
16662;SDS011;8445;51.270;9.434;2024-01-07T01:10:40;15.47;;;13.13;;
16662;SDS011;8445;51.270;9.434;2024-01-07T01:13:06;9.60;;;8.80;;
16662;SDS011;8445;51.270;9.434;2024-01-07T01:15:32;17.57;;;14.73;;
16662;SDS011;8445;51.270;9.434;2024-01-07T01:17:58;16.03;;;13.57;;
16662;SDS011;8445;51.270;9.434;2024-01-07T01:20:25;14.60;;;13.13;;
16662;SDS011;8445;51.270;9.434;2024-01-07T01:22:51;20.43;;;15.53;;
16662;SDS011;8445;51.270;9.434;2024-01-07T01:25:16;21.33;;;16.80;;
16662;SDS011;8445;51.270;9.434;2024-01-07T01:27:44;18.93;;;16.33;;
16662;SDS011;8445;51.270;9.434;2024-01-07T01:30:11;15.97;;;9.57;;
16662;SDS011;8445;51.270;9.434;2024-01-07T01:32:38;14.13;;;12.47;;
16662;SDS011;8445;51.270;9.434;2024-01-07T01:35:04;20.40;;;16.07;;
16662;SDS011;8445;51.270;9.434;2024-01-07T01:37:33;13.07;;;11.70;;
16662;SDS011;8445;51.270;9.434;2024-01-07T01:39:59;21.17;;;14.50;;
16662;SDS011;8445;51.270;9.434;2024-01-07T01:42:27;17.07;;;15.33;;
16662;SDS011;8445;51.270;9.434;2024-01-07T01:44:53;17.50;;;15.33;;
16662;SDS011;8445;51.270;9.434;2024-01-07T01:47:22;17.80;;;15.87;;
16662;SDS011;8445;51.270;9.434;2024-01-07T01:49:49;18.87;;;15.67;;
16662;SDS011;8445;51.270;9.434;2024-01-07T01:52:15;11.67;;;10.00;;
16662;SDS011;8445;51.270;9.434;2024-01-07T01:54:42;16.50;;;14.67;;
16662;SDS011;8445;51.270;9.434;2024-01-07T01:57:12;20.77;;;16.63;;
16662;SDS011;8445;51.270;9.434;2024-01-07T01:59:46;18.07;;;15.33;;
16662;SDS011;8445;51.270;9.434;2024-01-07T02:02:13;18.20;;;14.43;;
16662;SDS011;8445;51.270;9.434;2024-01-07T02:04:39;24.60;;;18.30;;
16662;SDS011;8445;51.270;9.434;2024-01-07T02:07:05;19.43;;;15.33;;
16662;SDS011;8445;51.270;9.434;2024-01-07T02:09:31;17.67;;;14.57;;
16662;SDS011;8445;51.270;9.434;2024-01-07T02:12:01;13.83;;;11.67;;
16662;SDS011;8445;51.270;9.434;2024-01-07T02:14:37;19.73;;;15.40;;
16662;SDS011;8445;51.270;9.434;2024-01-07T02:17:04;20.23;;;14.63;;
16662;SDS011;8445;51.270;9.434;2024-01-07T02:19:30;26.60;;;19.17;;
16662;SDS011;8445;51.270;9.434;2024-01-07T02:21:56;24.93;;;17.80;;
16662;SDS011;8445;51.270;9.434;2024-01-07T02:24:22;18.40;;;15.93;;
16662;SDS011;8445;51.270;9.434;2024-01-07T02:26:48;24.20;;;18.73;;
16662;SDS011;8445;51.270;9.434;2024-01-07T02:29:16;25.87;;;19.27;;
16662;SDS011;8445;51.270;9.434;2024-01-07T02:31:42;23.10;;;17.53;;
16662;SDS011;8445;51.270;9.434;2024-01-07T02:34:09;23.93;;;16.17;;
16662;SDS011;8445;51.270;9.434;2024-01-07T02:36:35;26.93;;;19.83;;
16662;SDS011;8445;51.270;9.434;2024-01-07T02:39:01;26.00;;;20.03;;
16662;SDS011;8445;51.270;9.434;2024-01-07T02:41:30;29.10;;;20.03;;
16662;SDS011;8445;51.270;9.434;2024-01-07T02:43:56;26.90;;;18.87;;
16662;SDS011;8445;51.270;9.434;2024-01-07T02:46:23;24.77;;;18.70;;
16662;SDS011;8445;51.270;9.434;2024-01-07T02:48:49;27.97;;;20.17;;
16662;SDS011;8445;51.270;9.434;2024-01-07T02:51:15;23.47;;;15.83;;
16662;SDS011;8445;51.270;9.434;2024-01-07T02:53:44;29.30;;;19.93;;
16662;SDS011;8445;51.270;9.434;2024-01-07T02:56:10;29.77;;;20.77;;
16662;SDS011;8445;51.270;9.434;2024-01-07T02:58:36;25.10;;;16.97;;
16662;SDS011;8445;51.270;9.434;2024-01-07T03:01:02;28.00;;;18.87;;
16662;SDS011;8445;51.270;9.434;2024-01-07T03:03:34;26.77;;;20.17;;
16662;SDS011;8445;51.270;9.434;2024-01-07T03:06:00;27.07;;;17.53;;
16662;SDS011;8445;51.270;9.434;2024-01-07T03:08:30;30.57;;;20.23;;
16662;SDS011;8445;51.270;9.434;2024-01-07T03:10:59;20.37;;;16.47;;
16662;SDS011;8445;51.270;9.434;2024-01-07T03:13:33;25.40;;;17.67;;
16662;SDS011;8445;51.270;9.434;2024-01-07T03:15:59;16.77;;;12.80;;
16662;SDS011;8445;51.270;9.434;2024-01-07T03:18:26;23.87;;;17.13;;
16662;SDS011;8445;51.270;9.434;2024-01-07T03:20:57;32.23;;;20.63;;
16662;SDS011;8445;51.270;9.434;2024-01-07T03:23:23;31.90;;;21.90;;
16662;SDS011;8445;51.270;9.434;2024-01-07T03:25:51;35.50;;;22.33;;
16662;SDS011;8445;51.270;9.434;2024-01-07T03:28:17;21.40;;;15.80;;
16662;SDS011;8445;51.270;9.434;2024-01-07T03:30:43;30.53;;;18.97;;
16662;SDS011;8445;51.270;9.434;2024-01-07T03:33:08;19.03;;;14.23;;
16662;SDS011;8445;51.270;9.434;2024-01-07T03:35:34;26.33;;;18.77;;
16662;SDS011;8445;51.270;9.434;2024-01-07T03:38:01;27.67;;;20.93;;
16662;SDS011;8445;51.270;9.434;2024-01-07T03:40:27;32.30;;;22.33;;
16662;SDS011;8445;51.270;9.434;2024-01-07T03:42:59;23.40;;;16.37;;
16662;SDS011;8445;51.270;9.434;2024-01-07T03:45:28;29.90;;;20.53;;
16662;SDS011;8445;51.270;9.434;2024-01-07T03:47:55;30.87;;;21.47;;
16662;SDS011;8445;51.270;9.434;2024-01-07T03:50:20;28.90;;;19.97;;
16662;SDS011;8445;51.270;9.434;2024-01-07T03:52:46;30.33;;;19.97;;
16662;SDS011;8445;51.270;9.434;2024-01-07T03:55:14;23.73;;;14.87;;
16662;SDS011;8445;51.270;9.434;2024-01-07T03:57:40;38.00;;;22.97;;
16662;SDS011;8445;51.270;9.434;2024-01-07T04:00:06;30.63;;;19.93;;
16662;SDS011;8445;51.270;9.434;2024-01-07T04:02:33;25.53;;;16.00;;
16662;SDS011;8445;51.270;9.434;2024-01-07T04:05:01;29.33;;;19.43;;
16662;SDS011;8445;51.270;9.434;2024-01-07T04:07:27;24.07;;;16.07;;
16662;SDS011;8445;51.270;9.434;2024-01-07T04:09:53;15.10;;;12.63;;
16662;SDS011;8445;51.270;9.434;2024-01-07T04:12:21;23.43;;;16.90;;
16662;SDS011;8445;51.270;9.434;2024-01-07T04:14:47;22.40;;;16.83;;
16662;SDS011;8445;51.270;9.434;2024-01-07T04:17:13;33.73;;;21.47;;
16662;SDS011;8445;51.270;9.434;2024-01-07T04:19:39;30.63;;;22.20;;
16662;SDS011;8445;51.270;9.434;2024-01-07T04:22:05;25.77;;;17.60;;
16662;SDS011;8445;51.270;9.434;2024-01-07T04:24:33;31.20;;;19.93;;
16662;SDS011;8445;51.270;9.434;2024-01-07T04:27:01;26.00;;;20.40;;
16662;SDS011;8445;51.270;9.434;2024-01-07T04:29:33;29.93;;;20.83;;
16662;SDS011;8445;51.270;9.434;2024-01-07T04:31:59;22.03;;;16.53;;
16662;SDS011;8445;51.270;9.434;2024-01-07T04:34:25;21.03;;;15.60;;
16662;SDS011;8445;51.270;9.434;2024-01-07T04:36:53;23.53;;;18.40;;
16662;SDS011;8445;51.270;9.434;2024-01-07T04:39:18;21.00;;;14.23;;
16662;SDS011;8445;51.270;9.434;2024-01-07T04:41:44;26.07;;;17.27;;
16662;SDS011;8445;51.270;9.434;2024-01-07T04:44:10;21.10;;;14.93;;
16662;SDS011;8445;51.270;9.434;2024-01-07T04:46:39;30.63;;;21.20;;
16662;SDS011;8445;51.270;9.434;2024-01-07T04:49:05;27.10;;;17.90;;
16662;SDS011;8445;51.270;9.434;2024-01-07T04:51:32;22.30;;;17.37;;
16662;SDS011;8445;51.270;9.434;2024-01-07T04:53:58;16.33;;;13.67;;
16662;SDS011;8445;51.270;9.434;2024-01-07T04:56:27;21.67;;;16.33;;
16662;SDS011;8445;51.270;9.434;2024-01-07T04:58:53;20.43;;;11.07;;
16662;SDS011;8445;51.270;9.434;2024-01-07T05:01:19;24.07;;;18.30;;
16662;SDS011;8445;51.270;9.434;2024-01-07T05:03:46;19.13;;;13.67;;
16662;SDS011;8445;51.270;9.434;2024-01-07T05:06:12;21.13;;;15.97;;
16662;SDS011;8445;51.270;9.434;2024-01-07T05:08:39;14.43;;;12.83;;
16662;SDS011;8445;51.270;9.434;2024-01-07T05:11:08;12.87;;;11.00;;
16662;SDS011;8445;51.270;9.434;2024-01-07T05:13:34;14.93;;;12.50;;
16662;SDS011;8445;51.270;9.434;2024-01-07T05:16:00;10.67;;;9.80;;
16662;SDS011;8445;51.270;9.434;2024-01-07T05:18:27;17.43;;;14.07;;
16662;SDS011;8445;51.270;9.434;2024-01-07T05:20:54;12.97;;;11.73;;
16662;SDS011;8445;51.270;9.434;2024-01-07T05:23:20;11.17;;;10.17;;
16662;SDS011;8445;51.270;9.434;2024-01-07T05:25:46;15.23;;;13.63;;
16662;SDS011;8445;51.270;9.434;2024-01-07T05:28:12;13.40;;;12.17;;
16662;SDS011;8445;51.270;9.434;2024-01-07T05:30:46;10.87;;;9.83;;
16662;SDS011;8445;51.270;9.434;2024-01-07T05:33:12;10.13;;;9.30;;
16662;SDS011;8445;51.270;9.434;2024-01-07T05:35:38;16.23;;;13.40;;
16662;SDS011;8445;51.270;9.434;2024-01-07T05:38:06;12.80;;;11.70;;
16662;SDS011;8445;51.270;9.434;2024-01-07T05:40:32;15.60;;;12.37;;
16662;SDS011;8445;51.270;9.434;2024-01-07T05:43:01;15.37;;;13.80;;
16662;SDS011;8445;51.270;9.434;2024-01-07T05:45:26;13.37;;;12.03;;
16662;SDS011;8445;51.270;9.434;2024-01-07T05:47:52;11.90;;;10.73;;
16662;SDS011;8445;51.270;9.434;2024-01-07T05:50:18;12.23;;;11.03;;
16662;SDS011;8445;51.270;9.434;2024-01-07T05:52:45;10.03;;;9.13;;
16662;SDS011;8445;51.270;9.434;2024-01-07T05:55:11;12.47;;;11.00;;
16662;SDS011;8445;51.270;9.434;2024-01-07T05:57:39;14.87;;;13.47;;
16662;SDS011;8445;51.270;9.434;2024-01-07T06:00:08;14.50;;;13.00;;
16662;SDS011;8445;51.270;9.434;2024-01-07T06:02:38;12.87;;;11.33;;
16662;SDS011;8445;51.270;9.434;2024-01-07T06:05:05;12.23;;;11.00;;
16662;SDS011;8445;51.270;9.434;2024-01-07T06:07:33;13.53;;;12.17;;
16662;SDS011;8445;51.270;9.434;2024-01-07T06:09:59;10.67;;;9.70;;
16662;SDS011;8445;51.270;9.434;2024-01-07T06:12:25;14.50;;;13.10;;
16662;SDS011;8445;51.270;9.434;2024-01-07T06:14:53;13.00;;;11.73;;
16662;SDS011;8445;51.270;9.434;2024-01-07T06:17:22;12.10;;;11.10;;
16662;SDS011;8445;51.270;9.434;2024-01-07T06:19:48;14.00;;;12.70;;
16662;SDS011;8445;51.270;9.434;2024-01-07T06:22:13;10.00;;;9.20;;
16662;SDS011;8445;51.270;9.434;2024-01-07T06:24:39;13.70;;;12.30;;
16662;SDS011;8445;51.270;9.434;2024-01-07T06:27:05;15.67;;;13.43;;
16662;SDS011;8445;51.270;9.434;2024-01-07T06:29:31;14.03;;;12.73;;
16662;SDS011;8445;51.270;9.434;2024-01-07T06:31:57;13.17;;;11.70;;
16662;SDS011;8445;51.270;9.434;2024-01-07T06:34:23;12.63;;;11.53;;
16662;SDS011;8445;51.270;9.434;2024-01-07T06:36:49;21.00;;;13.67;;
16662;SDS011;8445;51.270;9.434;2024-01-07T06:39:14;13.87;;;12.57;;
16662;SDS011;8445;51.270;9.434;2024-01-07T06:41:40;11.23;;;10.23;;
16662;SDS011;8445;51.270;9.434;2024-01-07T06:44:12;10.70;;;9.80;;
16662;SDS011;8445;51.270;9.434;2024-01-07T06:46:37;12.03;;;10.87;;
16662;SDS011;8445;51.270;9.434;2024-01-07T06:49:04;10.00;;;9.20;;
16662;SDS011;8445;51.270;9.434;2024-01-07T06:51:29;13.80;;;12.50;;
16662;SDS011;8445;51.270;9.434;2024-01-07T06:53:55;11.73;;;10.63;;
16662;SDS011;8445;51.270;9.434;2024-01-07T06:56:21;13.40;;;12.20;;
16662;SDS011;8445;51.270;9.434;2024-01-07T06:58:49;14.40;;;10.87;;
16662;SDS011;8445;51.270;9.434;2024-01-07T07:01:17;10.83;;;9.90;;
16662;SDS011;8445;51.270;9.434;2024-01-07T07:03:50;11.23;;;10.27;;
16662;SDS011;8445;51.270;9.434;2024-01-07T07:06:18;10.43;;;9.53;;
16662;SDS011;8445;51.270;9.434;2024-01-07T07:08:45;12.80;;;11.50;;
16662;SDS011;8445;51.270;9.434;2024-01-07T07:11:11;12.87;;;11.57;;
16662;SDS011;8445;51.270;9.434;2024-01-07T07:13:38;10.33;;;9.47;;
16662;SDS011;8445;51.270;9.434;2024-01-07T07:16:05;12.80;;;11.57;;
16662;SDS011;8445;51.270;9.434;2024-01-07T07:18:33;12.07;;;10.50;;
16662;SDS011;8445;51.270;9.434;2024-01-07T07:21:03;13.70;;;12.13;;
16662;SDS011;8445;51.270;9.434;2024-01-07T07:23:36;13.37;;;10.67;;
16662;SDS011;8445;51.270;9.434;2024-01-07T07:26:09;10.53;;;9.53;;
16662;SDS011;8445;51.270;9.434;2024-01-07T07:28:46;11.73;;;10.63;;
16662;SDS011;8445;51.270;9.434;2024-01-07T07:31:23;12.73;;;10.07;;
16662;SDS011;8445;51.270;9.434;2024-01-07T07:34:13;11.37;;;10.13;;
16662;SDS011;8445;51.270;9.434;2024-01-07T07:36:43;12.50;;;11.30;;
16662;SDS011;8445;51.270;9.434;2024-01-07T07:39:24;12.83;;;11.60;;
16662;SDS011;8445;51.270;9.434;2024-01-07T07:42:10;9.70;;;8.90;;
16662;SDS011;8445;51.270;9.434;2024-01-07T07:44:42;12.60;;;11.40;;
16662;SDS011;8445;51.270;9.434;2024-01-07T07:47:11;8.40;;;7.80;;
16662;SDS011;8445;51.270;9.434;2024-01-07T07:49:44;8.60;;;7.90;;
16662;SDS011;8445;51.270;9.434;2024-01-07T07:52:15;11.10;;;10.00;;
16662;SDS011;8445;51.270;9.434;2024-01-07T07:54:51;8.17;;;7.37;;
16662;SDS011;8445;51.270;9.434;2024-01-07T07:57:22;18.10;;;8.63;;
16662;SDS011;8445;51.270;9.434;2024-01-07T07:59:54;9.57;;;8.67;;
16662;SDS011;8445;51.270;9.434;2024-01-07T08:02:27;9.47;;;8.67;;
16662;SDS011;8445;51.270;9.434;2024-01-07T08:04:54;8.43;;;7.83;;
16662;SDS011;8445;51.270;9.434;2024-01-07T08:07:45;8.70;;;8.10;;
16662;SDS011;8445;51.270;9.434;2024-01-07T08:10:16;10.53;;;9.53;;
16662;SDS011;8445;51.270;9.434;2024-01-07T08:12:43;10.00;;;9.10;;
16662;SDS011;8445;51.270;9.434;2024-01-07T08:15:43;10.50;;;9.50;;
16662;SDS011;8445;51.270;9.434;2024-01-07T08:18:13;9.10;;;8.20;;
16662;SDS011;8445;51.270;9.434;2024-01-07T08:20:45;12.17;;;10.97;;
16662;SDS011;8445;51.270;9.434;2024-01-07T08:23:20;9.43;;;8.67;;
16662;SDS011;8445;51.270;9.434;2024-01-07T08:25:49;9.83;;;9.00;;
16662;SDS011;8445;51.270;9.434;2024-01-07T08:28:22;9.47;;;8.10;;
16662;SDS011;8445;51.270;9.434;2024-01-07T08:30:53;12.20;;;11.00;;
16662;SDS011;8445;51.270;9.434;2024-01-07T08:33:21;9.23;;;8.33;;
16662;SDS011;8445;51.270;9.434;2024-01-07T08:35:49;10.37;;;8.97;;
16662;SDS011;8445;51.270;9.434;2024-01-07T08:38:15;11.40;;;9.37;;
16662;SDS011;8445;51.270;9.434;2024-01-07T08:40:41;10.17;;;8.77;;
16662;SDS011;8445;51.270;9.434;2024-01-07T08:43:08;9.17;;;8.37;;
16662;SDS011;8445;51.270;9.434;2024-01-07T08:45:36;12.27;;;8.37;;
16662;SDS011;8445;51.270;9.434;2024-01-07T08:48:02;9.83;;;8.83;;
16662;SDS011;8445;51.270;9.434;2024-01-07T08:50:29;9.10;;;7.80;;
16662;SDS011;8445;51.270;9.434;2024-01-07T08:52:55;11.83;;;9.33;;
16662;SDS011;8445;51.270;9.434;2024-01-07T08:55:20;12.87;;;9.90;;
16662;SDS011;8445;51.270;9.434;2024-01-07T08:57:46;10.10;;;9.10;;
16662;SDS011;8445;51.270;9.434;2024-01-07T09:00:20;11.40;;;10.03;;
16662;SDS011;8445;51.270;9.434;2024-01-07T09:02:55;8.90;;;8.00;;
16662;SDS011;8445;51.270;9.434;2024-01-07T09:05:22;9.47;;;8.67;;
16662;SDS011;8445;51.270;9.434;2024-01-07T09:07:50;13.87;;;11.53;;
16662;SDS011;8445;51.270;9.434;2024-01-07T09:10:18;7.37;;;6.97;;
16662;SDS011;8445;51.270;9.434;2024-01-07T09:12:46;10.03;;;9.10;;
16662;SDS011;8445;51.270;9.434;2024-01-07T09:15:17;11.43;;;9.60;;
16662;SDS011;8445;51.270;9.434;2024-01-07T09:17:46;12.70;;;10.27;;
16662;SDS011;8445;51.270;9.434;2024-01-07T09:20:13;15.83;;;10.73;;
16662;SDS011;8445;51.270;9.434;2024-01-07T09:22:47;9.47;;;8.47;;
16662;SDS011;8445;51.270;9.434;2024-01-07T09:25:21;9.40;;;8.20;;
16662;SDS011;8445;51.270;9.434;2024-01-07T09:27:49;11.63;;;9.50;;
16662;SDS011;8445;51.270;9.434;2024-01-07T09:30:24;10.03;;;9.07;;
16662;SDS011;8445;51.270;9.434;2024-01-07T09:32:57;16.67;;;9.67;;
16662;SDS011;8445;51.270;9.434;2024-01-07T09:35:27;11.40;;;6.40;;
16662;SDS011;8445;51.270;9.434;2024-01-07T09:38:00;6.97;;;6.33;;
16662;SDS011;8445;51.270;9.434;2024-01-07T09:40:30;8.57;;;7.77;;
16662;SDS011;8445;51.270;9.434;2024-01-07T09:42:56;7.13;;;6.60;;
16662;SDS011;8445;51.270;9.434;2024-01-07T09:45:24;6.90;;;6.40;;
16662;SDS011;8445;51.270;9.434;2024-01-07T09:47:51;6.63;;;6.10;;
16662;SDS011;8445;51.270;9.434;2024-01-07T09:50:17;6.00;;;5.60;;
16662;SDS011;8445;51.270;9.434;2024-01-07T09:52:44;7.47;;;6.77;;
16662;SDS011;8445;51.270;9.434;2024-01-07T09:55:12;7.17;;;6.57;;
16662;SDS011;8445;51.270;9.434;2024-01-07T09:57:53;6.13;;;5.70;;
16662;SDS011;8445;51.270;9.434;2024-01-07T10:00:19;5.37;;;5.07;;
16662;SDS011;8445;51.270;9.434;2024-01-07T10:02:55;7.53;;;6.77;;
16662;SDS011;8445;51.270;9.434;2024-01-07T10:05:22;6.93;;;6.23;;
16662;SDS011;8445;51.270;9.434;2024-01-07T10:07:49;6.43;;;5.87;;
16662;SDS011;8445;51.270;9.434;2024-01-07T10:10:19;6.47;;;5.97;;
16662;SDS011;8445;51.270;9.434;2024-01-07T10:12:45;6.73;;;5.93;;
16662;SDS011;8445;51.270;9.434;2024-01-07T10:15:12;7.67;;;7.00;;
16662;SDS011;8445;51.270;9.434;2024-01-07T10:17:40;5.70;;;5.30;;
16662;SDS011;8445;51.270;9.434;2024-01-07T10:20:08;6.20;;;5.80;;
16662;SDS011;8445;51.270;9.434;2024-01-07T10:22:36;6.00;;;5.60;;
16662;SDS011;8445;51.270;9.434;2024-01-07T10:25:03;6.20;;;5.70;;
16662;SDS011;8445;51.270;9.434;2024-01-07T10:27:33;7.20;;;6.50;;
16662;SDS011;8445;51.270;9.434;2024-01-07T10:30:01;6.40;;;5.47;;
16662;SDS011;8445;51.270;9.434;2024-01-07T10:32:28;5.43;;;5.03;;
16662;SDS011;8445;51.270;9.434;2024-01-07T10:35:00;5.87;;;5.37;;
16662;SDS011;8445;51.270;9.434;2024-01-07T10:37:30;6.00;;;5.57;;
16662;SDS011;8445;51.270;9.434;2024-01-07T10:39:59;6.53;;;6.03;;
16662;SDS011;8445;51.270;9.434;2024-01-07T10:42:32;6.50;;;6.00;;
16662;SDS011;8445;51.270;9.434;2024-01-07T10:44:59;5.13;;;4.83;;
16662;SDS011;8445;51.270;9.434;2024-01-07T10:47:29;6.20;;;5.80;;
16662;SDS011;8445;51.270;9.434;2024-01-07T10:49:57;5.50;;;5.17;;
16662;SDS011;8445;51.270;9.434;2024-01-07T10:52:26;6.77;;;6.17;;
16662;SDS011;8445;51.270;9.434;2024-01-07T10:54:53;9.20;;;6.17;;
16662;SDS011;8445;51.270;9.434;2024-01-07T10:57:34;5.40;;;5.00;;
16662;SDS011;8445;51.270;9.434;2024-01-07T11:00:15;4.83;;;4.53;;
16662;SDS011;8445;51.270;9.434;2024-01-07T11:02:55;6.77;;;6.33;;
16662;SDS011;8445;51.270;9.434;2024-01-07T11:05:59;6.00;;;5.60;;
16662;SDS011;8445;51.270;9.434;2024-01-07T11:08:57;6.27;;;5.77;;
16662;SDS011;8445;51.270;9.434;2024-01-07T11:11:40;6.70;;;6.10;;
16662;SDS011;8445;51.270;9.434;2024-01-07T11:14:33;6.73;;;6.20;;
16662;SDS011;8445;51.270;9.434;2024-01-07T11:17:04;5.83;;;5.53;;
16662;SDS011;8445;51.270;9.434;2024-01-07T11:19:32;5.97;;;5.57;;
16662;SDS011;8445;51.270;9.434;2024-01-07T11:24:54;6.17;;;5.67;;
16662;SDS011;8445;51.270;9.434;2024-01-07T11:27:25;6.77;;;6.27;;
16662;SDS011;8445;51.270;9.434;2024-01-07T11:30:00;6.33;;;5.97;;
16662;SDS011;8445;51.270;9.434;2024-01-07T11:32:44;7.37;;;6.70;;
16662;SDS011;8445;51.270;9.434;2024-01-07T11:35:13;6.57;;;6.07;;
16662;SDS011;8445;51.270;9.434;2024-01-07T11:37:41;6.43;;;6.00;;
16662;SDS011;8445;51.270;9.434;2024-01-07T11:40:07;6.37;;;5.87;;
16662;SDS011;8445;51.270;9.434;2024-01-07T11:42:34;6.07;;;5.77;;
16662;SDS011;8445;51.270;9.434;2024-01-07T11:45:00;6.33;;;5.93;;
16662;SDS011;8445;51.270;9.434;2024-01-07T11:47:25;5.87;;;5.57;;
16662;SDS011;8445;51.270;9.434;2024-01-07T11:49:53;6.17;;;5.77;;
16662;SDS011;8445;51.270;9.434;2024-01-07T11:52:20;6.13;;;5.83;;
16662;SDS011;8445;51.270;9.434;2024-01-07T11:54:48;5.77;;;5.40;;
16662;SDS011;8445;51.270;9.434;2024-01-07T11:57:15;5.70;;;5.33;;
16662;SDS011;8445;51.270;9.434;2024-01-07T11:59:41;5.07;;;4.77;;
16662;SDS011;8445;51.270;9.434;2024-01-07T12:02:07;6.00;;;5.60;;
16662;SDS011;8445;51.270;9.434;2024-01-07T12:04:36;4.80;;;4.60;;
16662;SDS011;8445;51.270;9.434;2024-01-07T12:07:02;5.30;;;5.10;;
16662;SDS011;8445;51.270;9.434;2024-01-07T12:09:31;5.70;;;5.40;;
16662;SDS011;8445;51.270;9.434;2024-01-07T12:12:00;5.80;;;5.30;;
16662;SDS011;8445;51.270;9.434;2024-01-07T12:14:26;6.60;;;6.00;;
16662;SDS011;8445;51.270;9.434;2024-01-07T12:16:53;5.47;;;5.17;;
16662;SDS011;8445;51.270;9.434;2024-01-07T12:19:20;5.93;;;5.63;;
16662;SDS011;8445;51.270;9.434;2024-01-07T12:21:48;6.77;;;6.37;;
16662;SDS011;8445;51.270;9.434;2024-01-07T12:24:26;5.90;;;5.60;;
16662;SDS011;8445;51.270;9.434;2024-01-07T12:26:52;6.10;;;5.80;;
16662;SDS011;8445;51.270;9.434;2024-01-07T12:29:20;5.63;;;5.33;;
16662;SDS011;8445;51.270;9.434;2024-01-07T12:31:46;5.67;;;5.37;;
16662;SDS011;8445;51.270;9.434;2024-01-07T12:34:17;5.27;;;5.07;;
16662;SDS011;8445;51.270;9.434;2024-01-07T12:36:44;5.60;;;5.30;;
16662;SDS011;8445;51.270;9.434;2024-01-07T12:39:14;6.50;;;6.10;;
16662;SDS011;8445;51.270;9.434;2024-01-07T12:41:39;5.50;;;5.20;;
16662;SDS011;8445;51.270;9.434;2024-01-07T12:44:05;5.90;;;5.50;;
16662;SDS011;8445;51.270;9.434;2024-01-07T12:46:33;5.10;;;4.80;;
16662;SDS011;8445;51.270;9.434;2024-01-07T12:49:00;6.07;;;5.53;;
16662;SDS011;8445;51.270;9.434;2024-01-07T12:51:26;5.50;;;5.20;;
16662;SDS011;8445;51.270;9.434;2024-01-07T12:53:52;7.63;;;6.87;;
16662;SDS011;8445;51.270;9.434;2024-01-07T12:56:18;6.70;;;6.20;;
16662;SDS011;8445;51.270;9.434;2024-01-07T12:58:44;6.10;;;5.70;;
16662;SDS011;8445;51.270;9.434;2024-01-07T13:01:10;5.63;;;5.13;;
16662;SDS011;8445;51.270;9.434;2024-01-07T13:03:36;5.10;;;4.70;;
16662;SDS011;8445;51.270;9.434;2024-01-07T13:06:05;4.87;;;4.60;;
16662;SDS011;8445;51.270;9.434;2024-01-07T13:08:31;4.83;;;4.57;;
16662;SDS011;8445;51.270;9.434;2024-01-07T13:10:59;5.87;;;5.30;;
16662;SDS011;8445;51.270;9.434;2024-01-07T13:13:28;4.90;;;4.60;;
16662;SDS011;8445;51.270;9.434;2024-01-07T13:15:54;5.10;;;4.80;;
16662;SDS011;8445;51.270;9.434;2024-01-07T13:18:22;5.43;;;5.13;;
16662;SDS011;8445;51.270;9.434;2024-01-07T13:20:48;5.30;;;4.90;;
16662;SDS011;8445;51.270;9.434;2024-01-07T13:23:13;4.80;;;4.60;;
16662;SDS011;8445;51.270;9.434;2024-01-07T13:25:39;4.90;;;4.60;;
16662;SDS011;8445;51.270;9.434;2024-01-07T13:28:05;5.30;;;4.93;;
16662;SDS011;8445;51.270;9.434;2024-01-07T13:30:35;5.57;;;5.27;;
16662;SDS011;8445;51.270;9.434;2024-01-07T13:33:08;5.03;;;4.73;;
16662;SDS011;8445;51.270;9.434;2024-01-07T13:35:33;4.83;;;4.60;;
16662;SDS011;8445;51.270;9.434;2024-01-07T13:38:00;5.30;;;5.00;;
16662;SDS011;8445;51.270;9.434;2024-01-07T13:40:27;6.23;;;5.93;;
16662;SDS011;8445;51.270;9.434;2024-01-07T13:42:53;5.83;;;5.43;;
16662;SDS011;8445;51.270;9.434;2024-01-07T13:45:19;5.70;;;5.40;;
16662;SDS011;8445;51.270;9.434;2024-01-07T13:47:46;5.77;;;5.37;;
16662;SDS011;8445;51.270;9.434;2024-01-07T13:50:14;6.27;;;5.80;;
16662;SDS011;8445;51.270;9.434;2024-01-07T13:52:43;5.90;;;5.50;;
16662;SDS011;8445;51.270;9.434;2024-01-07T13:55:09;6.00;;;5.60;;
16662;SDS011;8445;51.270;9.434;2024-01-07T13:57:35;5.50;;;5.13;;
16662;SDS011;8445;51.270;9.434;2024-01-07T14:00:02;6.13;;;5.67;;
16662;SDS011;8445;51.270;9.434;2024-01-07T14:02:35;5.67;;;5.37;;
16662;SDS011;8445;51.270;9.434;2024-01-07T14:05:04;5.73;;;5.43;;
16662;SDS011;8445;51.270;9.434;2024-01-07T14:07:35;5.67;;;5.37;;
16662;SDS011;8445;51.270;9.434;2024-01-07T14:10:01;8.47;;;6.00;;
16662;SDS011;8445;51.270;9.434;2024-01-07T14:12:28;5.87;;;5.57;;
16662;SDS011;8445;51.270;9.434;2024-01-07T14:14:54;5.67;;;5.27;;
16662;SDS011;8445;51.270;9.434;2024-01-07T14:17:20;6.60;;;5.60;;
16662;SDS011;8445;51.270;9.434;2024-01-07T14:19:46;5.87;;;5.57;;
16662;SDS011;8445;51.270;9.434;2024-01-07T14:22:13;6.70;;;6.10;;
16662;SDS011;8445;51.270;9.434;2024-01-07T14:24:40;6.70;;;6.20;;
16662;SDS011;8445;51.270;9.434;2024-01-07T14:27:06;5.97;;;5.57;;
16662;SDS011;8445;51.270;9.434;2024-01-07T14:29:32;6.60;;;6.07;;
16662;SDS011;8445;51.270;9.434;2024-01-07T14:32:01;5.80;;;5.40;;
16662;SDS011;8445;51.270;9.434;2024-01-07T14:34:27;6.40;;;5.80;;
16662;SDS011;8445;51.270;9.434;2024-01-07T14:36:54;6.43;;;5.93;;
16662;SDS011;8445;51.270;9.434;2024-01-07T14:39:20;6.80;;;6.40;;
16662;SDS011;8445;51.270;9.434;2024-01-07T14:41:46;6.33;;;5.83;;
16662;SDS011;8445;51.270;9.434;2024-01-07T14:44:12;6.53;;;6.03;;
16662;SDS011;8445;51.270;9.434;2024-01-07T14:46:38;5.97;;;5.67;;
16662;SDS011;8445;51.270;9.434;2024-01-07T14:49:04;5.53;;;5.23;;
16662;SDS011;8445;51.270;9.434;2024-01-07T14:51:32;6.27;;;5.87;;
16662;SDS011;8445;51.270;9.434;2024-01-07T14:53:58;5.50;;;5.20;;
16662;SDS011;8445;51.270;9.434;2024-01-07T14:56:25;5.40;;;5.10;;